Allison, North Carolina
Current Conditions -  °F | °C
As of 5:53 AM on Sunday 23 Nov 2014 (Local Time) from KDAN Reporting Station
Clear Clear  
Wind Chill: 29°   Ceiling: Unl
Heat Index: 33°   Visibility: 10mi
Dew Point: 24°   Wind: 5mph
Humidity: 70%   Direction: 210°SSW
Pressure: 30.28"   Gusts: NA
Location:  36.4355°N, 79.5464°W
Report Text: KDAN 231053Z AUTO 21004KT 10SM CLR 01/M04 A3028 RMK AO2 SLP251 T00061044
Loading
Personal Weather Stations






























Interactive Weather Map New forecast layout! Learn more

10-Day Weather Forecast

Advertisements
Track Severe Weather on mobile